createdAt,value
2023-04-20T00:02:07.527Z,19.30
2023-04-20T00:04:36.527Z,17.90
2023-04-20T00:07:04.604Z,18.70
2023-04-20T00:09:33.133Z,20.80
2023-04-20T00:12:00.543Z,18.93
2023-04-20T00:14:27.803Z,16.27
2023-04-20T00:16:55.472Z,18.23
2023-04-20T00:19:23.235Z,19.43
2023-04-20T00:21:50.711Z,15.73
2023-04-20T00:24:18.041Z,21.13
2023-04-20T00:26:45.365Z,16.87
2023-04-20T00:29:12.719Z,18.37
2023-04-20T00:31:40.078Z,15.23
2023-04-20T00:34:07.418Z,18.63
2023-04-20T00:36:35.309Z,17.13
2023-04-20T00:39:02.665Z,16.60
2023-04-20T00:41:29.981Z,18.67
2023-04-20T00:43:57.369Z,17.43
2023-04-20T00:46:24.962Z,16.30
2023-04-20T00:48:53.118Z,16.43
2023-04-20T00:51:21.467Z,16.17
2023-04-20T00:53:48.828Z,17.53
2023-04-20T00:56:19.584Z,19.80
2023-04-20T00:58:48.856Z,16.67
2023-04-20T01:01:17.883Z,16.20
2023-04-20T01:03:48.669Z,17.43
2023-04-20T01:06:16.465Z,15.93
2023-04-20T01:08:51.424Z,20.27
2023-04-20T01:11:18.841Z,17.93
2023-04-20T01:13:46.294Z,17.30
2023-04-20T01:16:13.784Z,20.00
2023-04-20T01:18:48.595Z,20.80
2023-04-20T01:21:17.447Z,19.90
2023-04-20T01:23:45.117Z,18.80
2023-04-20T01:26:13.920Z,21.23
2023-04-20T01:28:42.892Z,17.83
2023-04-20T01:31:11.312Z,19.83
2023-04-20T01:33:38.799Z,18.97
2023-04-20T01:36:07.105Z,19.13
2023-04-20T01:38:35.041Z,19.37
2023-04-20T01:41:04.426Z,19.30
2023-04-20T01:43:33.319Z,20.27
2023-04-20T01:46:01.275Z,19.57
2023-04-20T01:48:28.817Z,19.07
2023-04-20T01:50:56.261Z,18.83
2023-04-20T01:53:25.228Z,21.20
2023-04-20T01:55:52.689Z,23.37
2023-04-20T01:58:23.245Z,22.20
2023-04-20T02:00:50.696Z,20.50
2023-04-20T02:03:18.197Z,18.83
2023-04-20T02:05:45.818Z,19.33
2023-04-20T02:08:13.108Z,20.10
2023-04-20T02:10:40.476Z,20.17
2023-04-20T02:13:10.166Z,21.90
2023-04-20T02:15:37.537Z,20.60
2023-04-20T02:18:05.040Z,19.50
2023-04-20T02:20:32.871Z,18.87
2023-04-20T02:23:00.304Z,21.07
2023-04-20T02:25:28.478Z,20.00
2023-04-20T02:27:56.360Z,22.77
2023-04-20T02:30:23.727Z,19.93
2023-04-20T02:32:51.205Z,23.33
2023-04-20T02:35:18.602Z,20.20
2023-04-20T02:37:46.139Z,21.93
2023-04-20T02:40:13.893Z,23.63
2023-04-20T02:42:41.354Z,24.40
2023-04-20T02:45:11.252Z,20.30
2023-04-20T02:47:39.401Z,20.03
2023-04-20T02:50:09.561Z,19.70
2023-04-20T02:52:52.253Z,22.83
2023-04-20T02:55:20.864Z,21.93
2023-04-20T02:58:23.978Z,20.57
2023-04-20T03:01:23.375Z,21.13
2023-04-20T03:03:58.908Z,23.67
2023-04-20T03:06:28.119Z,23.40
2023-04-20T03:08:57.344Z,19.30
2023-04-20T03:11:47.605Z,22.43
2023-04-20T03:14:27.030Z,22.27
2023-04-20T03:16:55.020Z,20.70
2023-04-20T03:19:22.490Z,20.17
2023-04-20T03:21:49.839Z,22.67
2023-04-20T03:24:20.214Z,22.60
2023-04-20T03:26:47.871Z,26.67
2023-04-20T03:29:21.064Z,23.73
2023-04-20T03:31:48.644Z,23.30
2023-04-20T03:34:16.396Z,20.80
2023-04-20T03:36:52.974Z,22.63
2023-04-20T03:39:23.367Z,20.17
2023-04-20T03:41:52.388Z,21.30
2023-04-20T03:44:19.752Z,21.60
2023-04-20T03:46:47.318Z,20.97
2023-04-20T03:49:15.766Z,21.37
2023-04-20T03:51:43.458Z,21.83
2023-04-20T03:54:11.120Z,25.03
2023-04-20T03:56:40.002Z,22.10
2023-04-20T03:59:07.783Z,22.20
2023-04-20T04:01:39.237Z,22.53
2023-04-20T04:04:07.636Z,20.73
2023-04-20T04:06:35.409Z,28.40
2023-04-20T04:09:02.875Z,23.87
2023-04-20T04:11:31.043Z,21.20
2023-04-20T04:13:59.788Z,23.00
2023-04-20T04:16:28.961Z,24.07
2023-04-20T04:18:56.564Z,27.43
2023-04-20T04:21:24.131Z,28.90
2023-04-20T04:23:57.490Z,23.07
2023-04-20T04:26:38.980Z,23.70
2023-04-20T04:29:07.022Z,24.37
2023-04-20T04:31:35.535Z,27.10
2023-04-20T04:34:14.164Z,27.60
2023-04-20T04:36:50.022Z,26.60
2023-04-20T04:39:22.809Z,25.60
2023-04-20T04:42:03.598Z,25.50
2023-04-20T04:44:42.329Z,21.67
2023-04-20T04:47:29.782Z,25.50
2023-04-20T04:50:04.666Z,27.67
2023-04-20T04:52:33.188Z,28.10
2023-04-20T04:55:03.353Z,22.10
2023-04-20T04:57:50.244Z,25.30
2023-04-20T05:00:18.329Z,25.27
2023-04-20T05:02:46.286Z,28.47
2023-04-20T05:05:16.893Z,24.00
2023-04-20T05:07:44.193Z,23.53
2023-04-20T05:10:14.736Z,25.30
2023-04-20T05:12:43.393Z,28.80
2023-04-20T05:15:10.986Z,24.93
2023-04-20T05:17:39.393Z,22.30
2023-04-20T05:20:15.486Z,22.90
2023-04-20T05:22:45.439Z,23.97
2023-04-20T05:25:36.296Z,23.10
2023-04-20T05:28:05.650Z,23.77
2023-04-20T05:30:33.571Z,24.67
2023-04-20T05:33:04.885Z,22.63
2023-04-20T05:35:32.274Z,21.93
2023-04-20T05:38:04.382Z,26.67
2023-04-20T05:40:37.128Z,21.73
2023-04-20T05:43:09.675Z,22.67
2023-04-20T05:45:56.062Z,23.87
2023-04-20T05:48:46.637Z,23.13
2023-04-20T05:51:17.260Z,24.47
2023-04-20T05:53:46.963Z,26.00
2023-04-20T05:56:18.518Z,29.20
2023-04-20T05:58:49.263Z,27.03
2023-04-20T06:01:18.528Z,28.87
2023-04-20T06:03:47.573Z,25.07
2023-04-20T06:06:23.826Z,27.07
2023-04-20T06:08:59.491Z,23.63
2023-04-20T06:11:29.186Z,22.77
2023-04-20T06:13:58.244Z,22.10
2023-04-20T06:16:29.710Z,21.63
2023-04-20T06:19:07.329Z,24.40
2023-04-20T06:21:44.657Z,19.60
2023-04-20T06:24:15.192Z,26.42
2023-04-20T06:26:44.238Z,23.52
2023-04-20T06:29:12.965Z,18.40
2023-04-20T06:31:41.334Z,18.52
2023-04-20T06:34:12.763Z,20.77
2023-04-20T06:36:50.783Z,15.75
2023-04-20T06:39:23.958Z,19.80
2023-04-20T06:41:51.816Z,19.08
2023-04-20T06:44:22.198Z,25.73
2023-04-20T06:46:58.419Z,21.23
2023-04-20T06:49:26.367Z,17.42
2023-04-20T06:51:54.875Z,27.45
2023-04-20T06:54:23.403Z,28.63
2023-04-20T06:56:51.224Z,25.20
2023-04-20T06:59:19.775Z,18.17
2023-04-20T07:01:51.315Z,16.13
2023-04-20T07:04:21.482Z,18.90
2023-04-20T07:06:57.831Z,18.85
2023-04-20T07:09:40.152Z,15.23
2023-04-20T07:12:16.528Z,18.92
2023-04-20T07:15:43.360Z,12.93
2023-04-20T07:18:11.792Z,19.50
2023-04-20T07:20:40.228Z,21.30
2023-04-20T07:23:08.916Z,20.75
2023-04-20T07:25:37.520Z,16.85
2023-04-20T07:28:08.957Z,19.45
2023-04-20T07:30:37.770Z,18.90
2023-04-20T07:33:07.478Z,22.10
2023-04-20T07:35:38.312Z,16.83
2023-04-20T07:38:11.753Z,14.50
2023-04-20T07:40:39.803Z,16.52
2023-04-20T07:43:07.125Z,18.85
2023-04-20T07:45:34.739Z,20.48
2023-04-20T07:48:06.913Z,21.02
2023-04-20T07:50:37.025Z,20.90
2023-04-20T07:53:04.474Z,20.42
2023-04-20T07:55:31.869Z,23.65
2023-04-20T07:58:00.948Z,18.83
2023-04-20T08:00:31.341Z,20.08
2023-04-20T08:02:58.769Z,18.77
2023-04-20T08:05:26.697Z,19.15
2023-04-20T08:07:54.725Z,24.23
2023-04-20T08:10:23.414Z,27.20
2023-04-20T08:12:52.734Z,15.13
2023-04-20T08:15:20.710Z,16.42
2023-04-20T08:17:54.071Z,25.00
2023-04-20T08:20:25.217Z,15.35
2023-04-20T08:22:53.874Z,20.35
2023-04-20T08:25:21.834Z,21.13
2023-04-20T08:31:37.305Z,24.75
2023-04-20T08:34:06.030Z,16.95
2023-04-20T08:36:36.898Z,14.65
2023-04-20T08:39:13.180Z,14.52
2023-04-20T08:41:45.621Z,16.25
2023-04-20T08:44:15.657Z,17.00
2023-04-20T08:46:48.057Z,13.45
2023-04-20T08:49:27.816Z,15.32
2023-04-20T08:51:55.401Z,14.25
2023-04-20T08:54:24.295Z,15.00
2023-04-20T08:56:57.933Z,13.27
2023-04-20T08:59:58.020Z,20.70
2023-04-20T09:02:25.398Z,19.48
2023-04-20T09:05:11.016Z,14.13
2023-04-20T09:07:40.464Z,16.27
2023-04-20T09:10:07.923Z,17.45
2023-04-20T09:12:43.344Z,15.43
2023-04-20T09:15:25.173Z,20.30
2023-04-20T09:17:54.025Z,13.50
2023-04-20T09:20:30.030Z,11.27
2023-04-20T09:22:59.240Z,14.45
2023-04-20T09:25:28.879Z,12.55
2023-04-20T09:28:02.382Z,12.55
2023-04-20T09:30:39.608Z,13.15
2023-04-20T09:33:12.532Z,13.52
2023-04-20T09:35:41.931Z,14.35
2023-04-20T09:38:16.759Z,15.07
2023-04-20T09:40:45.977Z,16.85
2023-04-20T09:43:51.283Z,11.02
2023-04-20T09:46:23.857Z,13.30
2023-04-20T09:48:51.436Z,12.05
2023-04-20T09:51:19.597Z,12.20
2023-04-20T09:53:52.762Z,14.55
2023-04-20T09:56:21.460Z,11.02
2023-04-20T09:58:48.920Z,10.38
2023-04-20T10:01:18.640Z,11.45
2023-04-20T10:03:50.370Z,11.23
2023-04-20T10:06:29.517Z,18.17
2023-04-20T10:09:09.919Z,14.60
2023-04-20T10:11:52.791Z,12.50
2023-04-20T10:14:24.938Z,8.50
2023-04-20T10:17:09.240Z,10.23
2023-04-20T10:19:59.622Z,10.85
2023-04-20T10:22:32.875Z,9.32
2023-04-20T10:25:22.378Z,8.75
2023-04-20T10:27:59.181Z,11.45
2023-04-20T10:30:31.815Z,10.85
2023-04-20T10:33:13.871Z,10.55
2023-04-20T10:35:53.320Z,12.65
2023-04-20T10:38:34.898Z,7.32
2023-04-20T10:41:11.552Z,6.68
2023-04-20T10:43:52.490Z,8.35
2023-04-20T10:46:26.288Z,8.32
2023-04-20T10:51:56.298Z,12.40
2023-04-20T10:54:46.144Z,7.47
2023-04-20T10:57:20.574Z,7.75
2023-04-20T11:00:09.416Z,8.77
2023-04-20T11:02:46.600Z,10.25
2023-04-20T11:05:19.397Z,8.40
2023-04-20T11:07:57.048Z,5.03
2023-04-20T11:10:38.912Z,11.85
2023-04-20T11:13:07.582Z,14.43
2023-04-20T11:15:38.933Z,8.45
2023-04-20T11:18:13.092Z,15.52
2023-04-20T11:20:55.692Z,8.48
2023-04-20T11:23:23.880Z,11.50
2023-04-20T11:25:54.490Z,6.78
2023-04-20T11:28:22.967Z,11.88
2023-04-20T11:31:17.403Z,9.40
2023-04-20T11:33:44.863Z,9.97
2023-04-20T11:36:24.890Z,7.63
2023-04-20T11:38:52.886Z,11.98
2023-04-20T11:41:21.862Z,7.45
2023-04-20T11:44:05.715Z,6.07
2023-04-20T11:46:37.148Z,7.60
2023-04-20T11:49:06.308Z,11.13
2023-04-20T11:51:34.250Z,8.18
2023-04-20T11:59:37.187Z,9.90
2023-04-20T12:02:10.434Z,5.43
2023-04-20T12:04:48.722Z,12.93
2023-04-20T12:07:22.363Z,9.27
2023-04-20T12:09:54.515Z,7.30
2023-04-20T12:12:24.330Z,8.57
2023-04-20T12:14:52.164Z,7.80
2023-04-20T12:17:23.794Z,9.60
2023-04-20T12:19:57.093Z,5.60
2023-04-20T12:22:26.688Z,9.00
2023-04-20T12:25:07.027Z,6.60
2023-04-20T12:27:41.349Z,7.63
2023-04-20T12:30:12.712Z,7.38
2023-04-20T12:32:42.355Z,6.75
2023-04-20T12:35:14.897Z,7.20
2023-04-20T12:37:43.665Z,7.20
2023-04-20T12:40:12.486Z,8.85
2023-04-20T12:45:31.173Z,10.52
2023-04-20T12:48:04.713Z,12.38
2023-04-20T12:50:46.741Z,6.95
2023-04-20T12:53:15.681Z,8.77
2023-04-20T12:55:50.968Z,9.55
2023-04-20T12:58:26.247Z,9.10
2023-04-20T13:01:02.430Z,12.15
2023-04-20T13:03:35.451Z,11.88
2023-04-20T13:06:04.766Z,11.60
2023-04-20T13:09:01.867Z,12.23
2023-04-20T13:11:30.636Z,28.02
2023-04-20T13:13:58.265Z,26.77
2023-04-20T13:16:26.223Z,27.30
2023-04-20T13:18:53.677Z,23.58
2023-04-20T13:21:22.448Z,13.82
2023-04-20T13:23:49.843Z,7.88
2023-04-20T13:26:17.205Z,6.30
2023-04-20T13:28:44.678Z,10.90
2023-04-20T13:31:12.051Z,10.52
2023-04-20T13:33:39.355Z,7.85
2023-04-20T13:36:07.017Z,9.55
2023-04-20T13:38:34.424Z,9.27
2023-04-20T13:41:01.876Z,11.68
2023-04-20T13:43:29.282Z,7.05
2023-04-20T13:45:56.796Z,13.95
2023-04-20T13:48:24.526Z,13.65
2023-04-20T13:50:54.232Z,9.82
2023-04-20T13:53:22.138Z,6.65
2023-04-20T13:55:49.527Z,11.55
2023-04-20T13:58:17.058Z,11.32
2023-04-20T14:00:44.422Z,6.68
2023-04-20T14:03:12.136Z,11.60
2023-04-20T14:05:39.954Z,9.00
2023-04-20T14:08:07.610Z,9.85
2023-04-20T14:10:35.045Z,10.27
2023-04-20T14:13:02.684Z,7.07
2023-04-20T14:15:30.237Z,7.97
2023-04-20T14:17:58.067Z,9.77
2023-04-20T14:20:25.467Z,8.00
2023-04-20T14:22:52.779Z,10.00
2023-04-20T14:25:20.657Z,8.07
2023-04-20T14:27:48.158Z,9.57
2023-04-20T14:30:16.137Z,6.63
2023-04-20T14:32:54.494Z,8.70
2023-04-20T14:35:24.430Z,8.65
2023-04-20T14:37:51.852Z,11.75
2023-04-20T14:40:21.421Z,12.63
2023-04-20T14:42:49.496Z,9.57
2023-04-20T14:45:17.093Z,12.95
2023-04-20T14:47:45.718Z,9.85
2023-04-20T14:50:15.899Z,9.90
2023-04-20T14:52:46.802Z,13.55
2023-04-20T14:55:25.387Z,9.88
2023-04-20T14:58:03.517Z,9.48
2023-04-20T15:00:40.593Z,9.95
2023-04-20T15:05:53.414Z,10.10
2023-04-20T15:08:21.555Z,9.40
2023-04-20T15:10:49.226Z,12.20
2023-04-20T15:13:19.229Z,8.23
2023-04-20T15:15:48.899Z,18.42
2023-04-20T15:18:19.804Z,35.95
2023-04-20T15:20:47.344Z,36.22
2023-04-20T15:23:17.586Z,33.65
2023-04-20T15:25:45.069Z,10.98
2023-04-20T15:28:12.651Z,39.72
2023-04-20T15:30:41.079Z,41.13
2023-04-20T15:33:08.941Z,16.45
2023-04-20T15:35:36.637Z,15.60
2023-04-20T15:38:04.568Z,12.77
2023-04-20T15:40:32.022Z,16.55
2023-04-20T15:42:59.349Z,15.05
2023-04-20T15:45:26.748Z,12.88
2023-04-20T15:47:55.964Z,16.70
2023-04-20T15:50:25.791Z,14.52
2023-04-20T15:52:54.836Z,10.88
2023-04-20T15:55:25.200Z,10.85
2023-04-20T15:57:58.414Z,9.93
2023-04-20T16:00:46.334Z,9.60
2023-04-20T16:03:18.002Z,10.63
2023-04-20T16:05:45.654Z,9.63
2023-04-20T16:08:14.371Z,9.02
2023-04-20T16:10:42.511Z,35.03
2023-04-20T16:13:09.893Z,11.13
2023-04-20T16:15:41.728Z,11.32
2023-04-20T16:18:09.249Z,11.35
2023-04-20T16:20:41.257Z,21.42
2023-04-20T16:23:10.531Z,13.25
2023-04-20T16:25:40.138Z,11.55
2023-04-20T16:28:09.894Z,9.32
2023-04-20T16:30:38.049Z,12.82
2023-04-20T16:33:08.441Z,11.05
2023-04-20T16:35:36.069Z,17.42
2023-04-20T16:38:03.445Z,10.60
2023-04-20T16:40:31.528Z,12.85
2023-04-20T16:43:01.806Z,12.20
2023-04-20T16:45:29.691Z,9.90
2023-04-20T16:47:58.281Z,11.68
2023-04-20T16:50:25.811Z,12.02
2023-04-20T16:52:53.391Z,10.95
2023-04-20T16:55:20.916Z,11.27
2023-04-20T16:57:49.611Z,15.05
2023-04-20T17:00:25.848Z,14.65
2023-04-20T17:02:53.887Z,15.13
2023-04-20T17:05:21.416Z,13.80
2023-04-20T17:07:49.035Z,15.70
2023-04-20T17:10:16.496Z,12.45
2023-04-20T17:12:43.915Z,15.88
2023-04-20T17:15:11.743Z,15.32
2023-04-20T17:17:39.106Z,16.60
2023-04-20T17:20:11.707Z,17.60
2023-04-20T17:22:39.527Z,14.90
2023-04-20T17:25:07.886Z,13.57
2023-04-20T17:27:35.394Z,12.93
2023-04-20T17:30:02.796Z,16.92
2023-04-20T17:32:30.147Z,18.70
2023-04-20T17:34:57.566Z,11.93
2023-04-20T17:37:27.058Z,16.73
2023-04-20T17:39:54.384Z,16.52
2023-04-20T17:42:21.751Z,11.80
2023-04-20T17:44:49.049Z,14.38
2023-04-20T17:47:17.741Z,12.98
2023-04-20T17:49:45.169Z,15.70
2023-04-20T17:52:18.385Z,19.65
2023-04-20T17:54:48.314Z,14.15
2023-04-20T17:57:15.642Z,15.70
2023-04-20T17:59:43.091Z,12.55
2023-04-20T18:02:11.955Z,18.00
2023-04-20T18:04:40.000Z,21.92
2023-04-20T18:07:07.770Z,21.55
2023-04-20T18:09:35.081Z,17.50
2023-04-20T18:12:02.475Z,18.63
2023-04-20T18:14:29.823Z,19.30
2023-04-20T18:16:57.159Z,19.80
2023-04-20T18:19:24.538Z,19.23
2023-04-20T18:21:52.573Z,25.27
2023-04-20T18:24:20.286Z,22.13
2023-04-20T18:26:47.831Z,18.92
2023-04-20T18:29:15.429Z,20.35
2023-04-20T18:31:43.465Z,17.52
2023-04-20T18:34:12.846Z,16.40
2023-04-20T18:36:40.831Z,15.48
2023-04-20T18:39:11.325Z,17.25
2023-04-20T18:41:38.928Z,19.65
2023-04-20T18:44:07.753Z,17.70
2023-04-20T18:46:35.243Z,17.38
2023-04-20T18:49:02.649Z,19.98
2023-04-20T18:51:29.985Z,18.52
2023-04-20T18:53:57.399Z,20.48
2023-04-20T18:56:24.735Z,22.75
2023-04-20T18:58:53.528Z,20.02
2023-04-20T19:01:21.219Z,22.20
2023-04-20T19:03:49.847Z,22.20
2023-04-20T19:06:17.388Z,22.85
2023-04-20T19:08:44.733Z,18.48
2023-04-20T19:11:12.154Z,23.95
2023-04-20T19:13:44.568Z,19.20
2023-04-20T19:16:12.523Z,18.50
2023-04-20T19:18:40.215Z,21.10
2023-04-20T19:21:07.643Z,23.63
2023-04-20T19:23:36.425Z,21.67
2023-04-20T19:26:04.369Z,19.75
2023-04-20T19:28:32.688Z,20.67
2023-04-20T19:31:00.688Z,21.52
2023-04-20T19:33:28.377Z,24.60
2023-04-20T19:35:55.688Z,21.25
2023-04-20T19:38:26.453Z,19.13
2023-04-20T19:40:55.012Z,26.35
2023-04-20T19:43:22.349Z,22.98
2023-04-20T19:45:49.864Z,22.73
2023-04-20T19:48:18.312Z,23.08
2023-04-20T19:50:46.999Z,21.83
2023-04-20T19:53:15.702Z,26.10
2023-04-20T19:55:43.405Z,20.70
2023-04-20T19:58:10.978Z,19.70
2023-04-20T20:00:41.356Z,23.40
2023-04-20T20:03:13.131Z,24.40
2023-04-20T20:05:40.601Z,29.77
2023-04-20T20:08:08.143Z,24.05
2023-04-20T20:10:36.572Z,24.88
2023-04-20T20:13:04.503Z,26.15
2023-04-20T20:15:32.388Z,28.10
2023-04-20T20:18:00.725Z,24.23
2023-04-20T20:20:30.901Z,24.52
2023-04-20T20:23:04.441Z,25.27
2023-04-20T20:25:35.066Z,27.20
2023-04-20T20:28:03.088Z,30.27
2023-04-20T20:30:30.896Z,26.08
2023-04-20T20:33:01.472Z,26.02
2023-04-20T20:35:33.269Z,26.70
2023-04-20T20:38:01.024Z,27.45
2023-04-20T20:40:28.457Z,29.17
2023-04-20T20:43:00.085Z,28.55
2023-04-20T20:45:31.103Z,28.27
2023-04-20T20:47:59.078Z,29.08
2023-04-20T20:50:30.785Z,31.70
2023-04-20T20:52:59.708Z,31.70
2023-04-20T20:55:28.243Z,28.83
2023-04-20T20:57:56.775Z,28.00
2023-04-20T21:00:24.647Z,26.20
2023-04-20T21:02:53.103Z,28.70
2023-04-20T21:05:22.885Z,30.15
2023-04-20T21:07:50.837Z,32.03
2023-04-20T21:10:18.250Z,31.58
2023-04-20T21:12:46.079Z,28.75
2023-04-20T21:15:13.755Z,29.33
2023-04-20T21:17:41.575Z,33.08
2023-04-20T21:20:09.455Z,29.75
2023-04-20T21:22:36.940Z,30.85
2023-04-20T21:25:04.691Z,27.10
2023-04-20T21:27:33.453Z,27.90
2023-04-20T21:30:02.235Z,24.83
2023-04-20T21:32:29.619Z,27.80
2023-04-20T21:34:56.901Z,25.63
2023-04-20T21:37:24.274Z,23.20
2023-04-20T21:39:51.643Z,28.60
2023-04-20T21:42:19.128Z,28.15
2023-04-20T21:44:48.674Z,30.98
2023-04-20T21:47:16.182Z,20.58
2023-04-20T21:49:46.292Z,23.80
2023-04-20T21:52:13.715Z,26.15
2023-04-20T21:54:41.995Z,26.85
2023-04-20T21:57:09.430Z,23.05
2023-04-20T21:59:36.761Z,28.27
2023-04-20T22:02:04.374Z,22.85
2023-04-20T22:04:34.557Z,24.70
2023-04-20T22:07:02.356Z,24.30
2023-04-20T22:09:30.215Z,23.00
2023-04-20T22:12:01.910Z,24.58
2023-04-20T22:14:29.635Z,24.63
2023-04-20T22:17:19.330Z,23.33
2023-04-20T22:19:46.828Z,20.60
2023-04-20T22:22:14.125Z,20.00
2023-04-20T22:24:42.040Z,34.97
2023-04-20T22:27:09.417Z,24.70
2023-04-20T22:29:36.952Z,24.45
2023-04-20T22:32:04.295Z,20.90
2023-04-20T22:34:31.868Z,23.08
2023-04-20T22:37:00.205Z,20.33
2023-04-20T22:39:28.194Z,21.13
2023-04-20T22:41:55.626Z,24.38
2023-04-20T22:44:22.894Z,19.63
2023-04-20T22:46:51.181Z,20.20
2023-04-20T22:53:27.274Z,19.90
2023-04-20T22:55:54.623Z,19.65
2023-04-20T22:58:21.946Z,17.33
2023-04-20T23:00:49.278Z,20.23
2023-04-20T23:03:17.051Z,20.42
2023-04-20T23:05:44.472Z,21.00
2023-04-20T23:08:14.167Z,17.77
2023-04-20T23:10:41.920Z,17.30
2023-04-20T23:13:16.862Z,19.02
2023-04-20T23:15:44.423Z,19.38
2023-04-20T23:18:12.207Z,17.80
2023-04-20T23:20:39.674Z,19.27
2023-04-20T23:23:10.276Z,17.48
2023-04-20T23:25:37.840Z,21.02
2023-04-20T23:28:05.441Z,21.02
2023-04-20T23:30:32.863Z,22.30
2023-04-20T23:33:00.356Z,20.08
2023-04-20T23:35:27.728Z,18.33
2023-04-20T23:37:55.568Z,18.65
2023-04-20T23:40:22.982Z,18.13
2023-04-20T23:42:50.388Z,17.58
2023-04-20T23:45:17.727Z,20.20
2023-04-20T23:47:46.323Z,20.92
2023-04-20T23:50:16.179Z,18.02
2023-04-20T23:52:43.605Z,19.67
2023-04-20T23:55:11.195Z,20.52
2023-04-20T23:57:38.560Z,17.60
